createdAt,value
2023-08-22T00:00:59.005Z,7.18
2023-08-22T00:03:25.551Z,7.72
2023-08-22T00:05:52.151Z,8.25
2023-08-22T00:08:18.876Z,7.82
2023-08-22T00:10:46.893Z,7.55
2023-08-22T00:13:13.464Z,7.43
2023-08-22T00:15:41.299Z,7.80
2023-08-22T00:18:08.134Z,7.82
2023-08-22T00:20:36.971Z,8.02
2023-08-22T00:23:05.005Z,8.02
2023-08-22T00:25:31.523Z,8.30
2023-08-22T00:27:58.031Z,8.68
2023-08-22T00:30:24.727Z,8.13
2023-08-22T00:32:51.375Z,8.05
2023-08-22T00:35:18.242Z,7.88
2023-08-22T00:37:44.729Z,8.50
2023-08-22T00:40:11.392Z,8.18
2023-08-22T00:42:37.885Z,8.00
2023-08-22T00:45:04.877Z,8.25
2023-08-22T00:49:58.257Z,8.10
2023-08-22T00:52:25.407Z,8.18
2023-08-22T00:54:51.934Z,8.38
2023-08-22T00:57:18.750Z,8.70
2023-08-22T00:59:45.550Z,8.55
2023-08-22T01:02:12.090Z,8.40
2023-08-22T01:04:38.587Z,9.32
2023-08-22T01:07:21.055Z,8.95
2023-08-22T01:10:04.195Z,9.07
2023-08-22T01:12:41.165Z,9.55
2023-08-22T01:15:21.599Z,9.18
2023-08-22T01:17:50.657Z,9.07
2023-08-22T01:20:18.543Z,9.00
2023-08-22T01:22:45.127Z,8.65
2023-08-22T01:25:11.736Z,9.05
2023-08-22T01:28:15.657Z,8.98
2023-08-22T01:30:51.102Z,8.52
2023-08-22T01:33:25.474Z,9.20
2023-08-22T01:35:55.636Z,9.02
2023-08-22T01:38:24.530Z,8.88
2023-08-22T01:40:52.902Z,8.02
2023-08-22T01:43:22.764Z,8.88
2023-08-22T01:45:49.630Z,9.20
2023-08-22T01:48:16.144Z,8.77
2023-08-22T01:50:42.678Z,9.18
2023-08-22T01:53:09.213Z,9.00
2023-08-22T01:55:35.690Z,9.48
2023-08-22T01:58:02.226Z,9.68
2023-08-22T02:00:28.758Z,9.05
2023-08-22T02:02:55.341Z,8.95
2023-08-22T02:05:22.058Z,9.00
2023-08-22T02:07:48.562Z,9.65
2023-08-22T02:10:15.326Z,8.82
2023-08-22T02:12:41.973Z,9.35
2023-08-22T02:15:08.648Z,9.65
2023-08-22T02:17:35.443Z,9.20
2023-08-22T02:20:02.181Z,8.45
2023-08-22T02:22:28.949Z,9.50
2023-08-22T02:24:55.554Z,9.77
2023-08-22T02:27:22.519Z,9.30
2023-08-22T02:32:15.878Z,9.50
2023-08-22T02:34:42.430Z,9.98
2023-08-22T02:37:09.156Z,8.43
2023-08-22T02:39:35.697Z,9.82
2023-08-22T02:42:02.168Z,8.23
2023-08-22T02:44:28.719Z,8.93
2023-08-22T02:46:55.218Z,9.93
2023-08-22T02:49:21.680Z,9.77
2023-08-22T02:51:48.205Z,8.95
2023-08-22T02:54:14.699Z,9.57
2023-08-22T02:56:41.154Z,9.88
2023-08-22T02:59:07.923Z,10.18
2023-08-22T03:01:34.493Z,9.77
2023-08-22T03:04:01.492Z,9.68
2023-08-22T03:06:28.090Z,8.88
2023-08-22T03:08:54.641Z,9.13
2023-08-22T03:11:22.329Z,10.38
2023-08-22T03:13:49.924Z,10.50
2023-08-22T03:16:16.470Z,9.10
2023-08-22T03:18:44.169Z,9.77
2023-08-22T03:21:10.724Z,9.65
2023-08-22T03:23:37.374Z,9.10
2023-08-22T03:26:04.220Z,9.48
2023-08-22T03:28:33.082Z,9.02
2023-08-22T03:31:04.121Z,9.52
2023-08-22T03:33:31.654Z,9.23
2023-08-22T03:35:59.655Z,9.90
2023-08-22T03:38:27.022Z,9.80
2023-08-22T03:40:54.333Z,9.85
2023-08-22T03:43:21.065Z,9.45
2023-08-22T03:45:48.531Z,9.20
2023-08-22T03:48:15.971Z,10.02
2023-08-22T03:50:43.811Z,9.73
2023-08-22T03:53:11.382Z,10.02
2023-08-22T03:55:37.947Z,10.70
2023-08-22T03:58:04.589Z,10.60
2023-08-22T04:00:31.679Z,10.13
2023-08-22T04:07:52.859Z,9.88
2023-08-22T04:10:20.033Z,9.90
2023-08-22T04:12:46.964Z,10.30
2023-08-22T04:15:14.524Z,11.38
2023-08-22T04:17:44.210Z,10.82
2023-08-22T04:20:12.723Z,10.63
2023-08-22T04:22:43.980Z,10.77
2023-08-22T04:25:11.398Z,10.90
2023-08-22T04:27:39.428Z,9.52
2023-08-22T04:30:07.105Z,11.57
2023-08-22T04:32:33.810Z,11.23
2023-08-22T04:35:00.384Z,11.73
2023-08-22T04:37:26.894Z,10.90
2023-08-22T04:39:53.444Z,11.13
2023-08-22T04:42:20.056Z,10.30
2023-08-22T04:44:46.605Z,10.10
2023-08-22T04:47:13.308Z,9.50
2023-08-22T04:49:39.804Z,11.18
2023-08-22T04:52:06.697Z,10.50
2023-08-22T04:54:33.251Z,10.60
2023-08-22T04:56:59.761Z,10.55
2023-08-22T04:59:26.850Z,9.75
2023-08-22T05:04:19.806Z,10.43
2023-08-22T05:06:46.842Z,10.38
2023-08-22T05:11:42.081Z,9.55
2023-08-22T05:14:09.664Z,10.38
2023-08-22T05:16:36.951Z,9.70
2023-08-22T05:19:03.766Z,9.45
2023-08-22T05:21:30.430Z,9.43
2023-08-22T05:23:56.936Z,9.45
2023-08-22T05:26:23.441Z,8.85
2023-08-22T05:28:50.095Z,9.18
2023-08-22T05:31:24.133Z,9.02
2023-08-22T05:33:51.928Z,9.07
2023-08-22T05:36:18.875Z,8.90
2023-08-22T05:41:11.821Z,8.55
2023-08-22T05:43:38.307Z,8.50
2023-08-22T05:46:05.074Z,8.15
2023-08-22T05:48:31.612Z,8.00
2023-08-22T05:50:58.186Z,8.38
2023-08-22T05:53:25.122Z,7.43
2023-08-22T05:55:51.741Z,7.50
2023-08-22T05:58:18.253Z,7.82
2023-08-22T06:00:44.803Z,8.10
2023-08-22T06:03:11.352Z,7.45
2023-08-22T06:05:37.881Z,7.28
2023-08-22T06:08:04.845Z,8.35
2023-08-22T06:10:31.596Z,7.10
2023-08-22T06:12:58.114Z,6.22
2023-08-22T06:15:24.549Z,7.10
2023-08-22T06:17:51.192Z,6.55
2023-08-22T06:20:17.846Z,7.50
2023-08-22T06:22:44.354Z,6.43
2023-08-22T06:25:10.907Z,8.07
2023-08-22T06:27:37.420Z,6.78
2023-08-22T06:30:04.246Z,6.55
2023-08-22T06:35:00.859Z,6.40
2023-08-22T06:37:27.510Z,6.53
2023-08-22T06:42:20.632Z,7.00
2023-08-22T06:47:13.627Z,6.40
2023-08-22T06:52:09.470Z,6.15
2023-08-22T06:54:35.952Z,5.70
2023-08-22T06:59:28.813Z,6.30
2023-08-22T07:06:48.654Z,5.53
2023-08-22T07:09:15.146Z,6.88
2023-08-22T07:11:41.770Z,5.55
2023-08-22T07:14:08.561Z,6.20
2023-08-22T07:16:37.644Z,5.78
2023-08-22T07:19:04.269Z,7.53
2023-08-22T07:21:30.778Z,6.63
2023-08-22T07:23:57.854Z,9.80
2023-08-22T07:26:24.473Z,7.03
2023-08-22T07:28:51.480Z,6.35
2023-08-22T07:31:18.066Z,5.13
2023-08-22T07:33:44.549Z,5.80
2023-08-22T07:36:21.463Z,5.90
2023-08-22T07:38:48.403Z,5.70
2023-08-22T07:41:14.975Z,5.68
2023-08-22T07:43:41.512Z,5.90
2023-08-22T07:46:08.189Z,6.10
2023-08-22T07:48:34.939Z,6.07
2023-08-22T07:51:01.404Z,5.70
2023-08-22T07:53:27.966Z,5.10
2023-08-22T07:55:54.559Z,5.07
2023-08-22T07:58:21.407Z,4.78
2023-08-22T08:00:49.191Z,5.72
2023-08-22T08:03:15.870Z,4.55
2023-08-22T08:05:42.586Z,4.30
2023-08-22T08:08:09.192Z,4.53
2023-08-22T08:10:37.356Z,4.00
2023-08-22T08:13:04.033Z,5.35
2023-08-22T08:15:31.070Z,3.97
2023-08-22T08:17:59.572Z,4.28
2023-08-22T08:20:26.894Z,5.18
2023-08-22T08:22:53.523Z,4.78
2023-08-22T08:25:19.970Z,4.95
2023-08-22T08:27:49.232Z,5.45
2023-08-22T08:30:17.409Z,4.70
2023-08-22T08:32:44.194Z,4.40
2023-08-22T08:35:11.251Z,5.38
2023-08-22T08:37:37.845Z,4.28
2023-08-22T08:40:08.356Z,4.03
2023-08-22T08:42:38.181Z,4.43
2023-08-22T08:45:06.027Z,4.13
2023-08-22T08:47:34.370Z,4.22
2023-08-22T08:50:07.413Z,4.40
2023-08-22T08:52:34.101Z,4.70
2023-08-22T08:55:01.268Z,4.50
2023-08-22T08:57:30.668Z,4.10
2023-08-22T08:59:57.261Z,4.45
2023-08-22T09:02:23.695Z,3.72
2023-08-22T09:04:51.200Z,4.43
2023-08-22T09:07:19.185Z,4.88
2023-08-22T09:09:45.666Z,5.10
2023-08-22T09:12:12.244Z,4.20
2023-08-22T09:14:44.900Z,4.63
2023-08-22T09:17:18.385Z,4.18
2023-08-22T09:19:45.859Z,3.83
2023-08-22T09:22:16.459Z,4.40
2023-08-22T09:24:54.648Z,3.95
2023-08-22T09:27:30.801Z,3.85
2023-08-22T09:30:02.251Z,3.65
2023-08-22T09:32:28.802Z,3.88
2023-08-22T09:35:01.737Z,3.50
2023-08-22T09:37:37.949Z,4.38
2023-08-22T09:40:14.711Z,3.33
2023-08-22T09:42:42.179Z,3.92
2023-08-22T09:45:10.204Z,4.28
2023-08-22T09:47:43.878Z,4.57
2023-08-22T09:50:12.980Z,4.20
2023-08-22T09:52:41.258Z,3.28
2023-08-22T09:55:08.489Z,3.40
2023-08-22T09:57:36.534Z,3.42
2023-08-22T10:00:05.398Z,3.58
2023-08-22T10:02:33.672Z,3.78
2023-08-22T10:05:01.665Z,4.18
2023-08-22T10:07:29.593Z,4.30
2023-08-22T10:09:56.266Z,4.30
2023-08-22T10:12:23.474Z,4.55
2023-08-22T10:14:59.167Z,3.75
2023-08-22T10:17:29.135Z,3.35
2023-08-22T10:20:05.947Z,3.92
2023-08-22T10:22:36.276Z,3.42
2023-08-22T10:25:07.412Z,3.42
2023-08-22T10:27:40.178Z,3.63
2023-08-22T10:30:16.736Z,4.18
2023-08-22T10:33:02.802Z,3.42
2023-08-22T10:35:29.520Z,4.25
2023-08-22T10:37:57.078Z,3.50
2023-08-22T10:40:29.073Z,3.72
2023-08-22T10:43:07.368Z,3.72
2023-08-22T10:45:43.829Z,3.88
2023-08-22T10:48:14.364Z,3.42
2023-08-22T10:50:42.781Z,3.85
2023-08-22T10:53:13.739Z,3.60
2023-08-22T10:55:40.261Z,3.35
2023-08-22T10:58:06.856Z,3.50
2023-08-22T11:00:34.274Z,3.30
2023-08-22T11:03:01.404Z,3.05
2023-08-22T11:05:31.388Z,3.15
2023-08-22T11:07:58.127Z,3.20
2023-08-22T11:10:26.286Z,3.03
2023-08-22T11:12:56.936Z,3.17
2023-08-22T11:15:23.631Z,3.22
2023-08-22T11:17:52.180Z,3.97
2023-08-22T11:20:21.916Z,3.40
2023-08-22T11:22:49.311Z,3.30
2023-08-22T11:25:24.703Z,3.22
2023-08-22T11:27:51.696Z,3.08
2023-08-22T11:30:20.002Z,4.00
2023-08-22T11:32:47.162Z,3.80
2023-08-22T11:35:14.166Z,3.72
2023-08-22T11:37:44.216Z,3.00
2023-08-22T11:40:15.552Z,3.72
2023-08-22T11:42:42.932Z,4.15
2023-08-22T11:45:24.047Z,4.22
2023-08-22T11:47:52.381Z,3.67
2023-08-22T11:50:25.203Z,4.15
2023-08-22T11:52:56.303Z,3.28
2023-08-22T11:55:27.624Z,4.07
2023-08-22T11:58:00.839Z,3.70
2023-08-22T12:00:28.872Z,3.45
2023-08-22T12:02:57.332Z,3.30
2023-08-22T12:05:36.158Z,3.90
2023-08-22T12:08:11.833Z,3.45
2023-08-22T12:10:42.437Z,3.55
2023-08-22T12:13:10.113Z,3.55
2023-08-22T12:15:37.381Z,3.65
2023-08-22T12:18:05.948Z,3.00
2023-08-22T12:20:33.376Z,3.45
2023-08-22T12:22:59.887Z,3.03
2023-08-22T12:25:26.527Z,3.42
2023-08-22T12:27:53.209Z,3.20
2023-08-22T12:30:19.705Z,3.67
2023-08-22T12:32:46.784Z,3.20
2023-08-22T12:35:13.944Z,3.70
2023-08-22T12:37:41.140Z,3.42
2023-08-22T12:40:13.683Z,3.40
2023-08-22T12:42:41.029Z,3.50
2023-08-22T12:45:11.259Z,3.22
2023-08-22T12:47:38.884Z,3.10
2023-08-22T12:50:06.879Z,2.92
2023-08-22T12:52:33.515Z,3.10
2023-08-22T12:55:01.847Z,3.35
2023-08-22T12:57:28.295Z,3.50
2023-08-22T12:59:54.863Z,3.15
2023-08-22T13:02:24.311Z,3.53
2023-08-22T13:04:51.378Z,3.85
2023-08-22T13:07:18.121Z,3.50
2023-08-22T13:09:44.577Z,3.80
2023-08-22T13:12:11.316Z,3.67
2023-08-22T13:14:37.770Z,3.80
2023-08-22T13:17:05.254Z,3.95
2023-08-22T13:19:31.939Z,3.50
2023-08-22T13:21:58.565Z,3.83
2023-08-22T13:24:25.168Z,2.97
2023-08-22T13:26:51.876Z,3.75
2023-08-22T13:29:18.627Z,3.22
2023-08-22T13:31:47.534Z,2.75
2023-08-22T13:34:14.219Z,3.03
2023-08-22T13:36:40.792Z,2.80
2023-08-22T13:39:07.213Z,3.05
2023-08-22T13:41:33.760Z,2.97
2023-08-22T13:44:00.252Z,3.08
2023-08-22T13:46:26.690Z,3.00
2023-08-22T13:48:53.195Z,2.53
2023-08-22T13:51:19.731Z,3.30
2023-08-22T13:53:46.407Z,3.05
2023-08-22T13:56:14.355Z,3.10
2023-08-22T13:58:41.110Z,2.80
2023-08-22T14:01:07.759Z,2.92
2023-08-22T14:03:34.337Z,3.90
2023-08-22T14:06:01.632Z,3.67
2023-08-22T14:08:28.179Z,3.60
2023-08-22T14:11:00.725Z,2.63
2023-08-22T14:13:27.889Z,2.90
2023-08-22T14:15:54.390Z,3.63
2023-08-22T14:18:21.035Z,2.70
2023-08-22T14:20:47.829Z,2.83
2023-08-22T14:23:14.321Z,3.38
2023-08-22T14:25:41.708Z,3.63
2023-08-22T14:28:08.398Z,3.30
2023-08-22T14:30:35.642Z,3.75
2023-08-22T14:33:02.878Z,3.47
2023-08-22T14:35:29.655Z,2.83
2023-08-22T14:37:56.256Z,3.22
2023-08-22T14:40:22.713Z,4.05
2023-08-22T14:42:49.235Z,3.30
2023-08-22T14:45:15.950Z,3.20
2023-08-22T14:47:42.532Z,3.50
2023-08-22T14:50:09.175Z,3.22
2023-08-22T14:52:35.936Z,3.60
2023-08-22T14:55:03.966Z,3.90
2023-08-22T14:57:30.633Z,3.22
2023-08-22T14:59:57.428Z,3.63
2023-08-22T15:02:23.975Z,3.75
2023-08-22T15:04:50.527Z,3.30
2023-08-22T15:07:17.208Z,3.63
2023-08-22T15:09:43.837Z,3.03
2023-08-22T15:12:10.292Z,3.13
2023-08-22T15:14:36.770Z,3.72
2023-08-22T15:17:03.313Z,3.65
2023-08-22T15:19:29.795Z,3.38
2023-08-22T15:21:56.303Z,4.20
2023-08-22T15:24:22.831Z,3.30
2023-08-22T15:26:49.761Z,3.20
2023-08-22T15:29:16.336Z,4.13
2023-08-22T15:31:45.036Z,3.38
2023-08-22T15:34:11.836Z,4.10
2023-08-22T15:36:38.305Z,3.60
2023-08-22T15:39:05.535Z,3.33
2023-08-22T15:41:32.083Z,3.25
2023-08-22T15:43:58.572Z,3.50
2023-08-22T15:46:25.183Z,4.25
2023-08-22T15:48:51.824Z,4.15
2023-08-22T15:51:18.413Z,3.85
2023-08-22T15:53:44.938Z,3.72
2023-08-22T15:56:11.535Z,3.70
2023-08-22T15:58:38.042Z,3.45
2023-08-22T16:01:04.693Z,4.28
2023-08-22T16:03:31.425Z,4.07
2023-08-22T16:05:58.944Z,4.78
2023-08-22T16:08:25.496Z,4.03
2023-08-22T16:10:52.038Z,4.30
2023-08-22T16:13:18.451Z,3.58
2023-08-22T16:15:49.439Z,3.65
2023-08-22T16:18:16.339Z,4.07
2023-08-22T16:20:44.428Z,4.35
2023-08-22T16:23:12.220Z,4.00
2023-08-22T16:25:42.420Z,3.90
2023-08-22T16:28:09.217Z,4.00
2023-08-22T16:30:35.840Z,3.92
2023-08-22T16:33:02.424Z,3.70
2023-08-22T16:35:29.054Z,4.10
2023-08-22T16:37:55.551Z,3.70
2023-08-22T16:40:22.117Z,4.25
2023-08-22T16:42:48.784Z,4.18
2023-08-22T16:45:15.529Z,4.20
2023-08-22T16:47:42.027Z,4.25
2023-08-22T16:50:09.186Z,3.47
2023-08-22T16:52:35.650Z,3.72
2023-08-22T16:55:04.418Z,3.83
2023-08-22T16:57:30.977Z,4.35
2023-08-22T16:59:57.516Z,3.95
2023-08-22T17:07:16.982Z,4.00
2023-08-22T17:09:43.480Z,3.60
2023-08-22T17:14:37.467Z,4.13
2023-08-22T17:19:32.038Z,3.70
2023-08-22T17:21:58.598Z,4.05
2023-08-22T17:26:51.885Z,3.95
2023-08-22T17:29:18.537Z,3.88
2023-08-22T17:31:45.253Z,4.30
2023-08-22T17:34:11.856Z,4.72
2023-08-22T17:39:05.183Z,3.83
2023-08-22T17:41:31.623Z,4.55
2023-08-22T17:43:59.332Z,4.10
2023-08-22T17:46:26.003Z,4.25
2023-08-22T17:48:52.582Z,4.28
2023-08-22T17:51:19.055Z,3.95
2023-08-22T17:53:45.836Z,4.63
2023-08-22T17:56:12.308Z,3.92
2023-08-22T17:58:38.957Z,4.53
2023-08-22T18:01:06.271Z,3.72
2023-08-22T18:03:32.863Z,4.57
2023-08-22T18:06:01.308Z,4.03
2023-08-22T18:08:28.720Z,4.50
2023-08-22T18:10:56.648Z,3.45
2023-08-22T18:13:23.687Z,3.90
2023-08-22T18:16:08.043Z,4.90
2023-08-22T18:21:10.151Z,4.10
2023-08-22T18:23:37.616Z,4.22
2023-08-22T18:26:11.894Z,3.88
2023-08-22T18:28:39.270Z,4.22
2023-08-22T18:31:13.802Z,4.43
2023-08-22T18:33:40.322Z,4.40
2023-08-22T18:36:19.511Z,3.97
2023-08-22T18:38:46.737Z,4.05
2023-08-22T18:41:14.135Z,4.88
2023-08-22T18:43:44.208Z,4.50
2023-08-22T18:46:11.004Z,4.82
2023-08-22T18:48:37.521Z,4.30
2023-08-22T18:51:04.217Z,4.63
2023-08-22T18:55:58.477Z,4.95
2023-08-22T18:58:27.857Z,4.47
2023-08-22T19:00:54.637Z,5.03
2023-08-22T19:03:21.593Z,4.57
2023-08-22T19:05:48.290Z,4.97
2023-08-22T19:08:15.010Z,4.38
2023-08-22T19:13:14.997Z,3.97
2023-08-22T19:15:43.480Z,4.15
2023-08-22T19:18:11.158Z,4.90
2023-08-22T19:20:38.669Z,4.00
2023-08-22T19:23:06.177Z,4.40
2023-08-22T19:25:33.091Z,4.32
2023-08-22T19:27:59.735Z,3.83
2023-08-22T19:30:26.972Z,4.40
2023-08-22T19:33:11.336Z,4.85
2023-08-22T19:35:41.364Z,4.43
2023-08-22T19:38:07.974Z,4.45
2023-08-22T19:40:34.704Z,3.78
2023-08-22T19:45:30.511Z,4.55
2023-08-22T19:47:57.039Z,4.85
2023-08-22T19:50:23.594Z,4.53
2023-08-22T21:47:34.105Z,3.92
2023-08-22T21:50:00.684Z,3.42
2023-08-22T21:52:27.450Z,4.20
2023-08-22T21:54:54.040Z,3.50
2023-08-22T21:57:20.557Z,4.25
2023-08-22T21:59:47.125Z,4.07
2023-08-22T22:02:13.812Z,4.13
2023-08-22T22:04:40.904Z,4.40
2023-08-22T22:07:07.391Z,4.53
2023-08-22T22:09:34.089Z,5.18
2023-08-22T22:12:00.638Z,4.70
2023-08-22T22:14:28.281Z,4.47
2023-08-22T22:16:54.977Z,4.65
2023-08-22T22:19:22.812Z,4.38
2023-08-22T22:21:49.468Z,4.30
2023-08-22T22:24:15.995Z,4.10
2023-08-22T22:26:42.519Z,5.00
2023-08-22T22:29:09.206Z,4.47
2023-08-22T22:31:35.830Z,4.07
2023-08-22T22:34:02.364Z,4.07
2023-08-22T22:36:28.852Z,3.83
2023-08-22T22:38:55.467Z,3.40
2023-08-22T22:41:22.004Z,4.13
2023-08-22T22:43:48.517Z,3.83
2023-08-22T22:46:15.397Z,3.20
2023-08-22T22:48:43.332Z,3.20
2023-08-22T22:51:09.952Z,3.65
2023-08-22T22:53:36.470Z,3.90
2023-08-22T22:56:03.033Z,3.42
2023-08-22T22:58:29.828Z,3.40
2023-08-22T23:00:56.342Z,4.10
2023-08-22T23:03:23.724Z,3.80
2023-08-22T23:05:50.313Z,4.47
2023-08-22T23:08:16.817Z,4.40
2023-08-22T23:10:43.864Z,4.88
2023-08-22T23:13:10.808Z,4.70
2023-08-22T23:15:37.288Z,3.90
2023-08-22T23:18:03.950Z,4.55
2023-08-22T23:20:30.498Z,4.05
2023-08-22T23:22:57.021Z,4.47
2023-08-22T23:25:23.557Z,4.40
2023-08-22T23:27:50.381Z,4.35
2023-08-22T23:32:44.123Z,4.15
2023-08-22T23:35:10.796Z,4.80
2023-08-22T23:37:37.335Z,4.38
2023-08-22T23:40:25.095Z,4.18
2023-08-22T23:42:53.179Z,4.53
2023-08-22T23:45:23.750Z,4.38
2023-08-22T23:47:51.202Z,4.32
2023-08-22T23:50:18.135Z,4.68
2023-08-22T23:52:44.703Z,4.85
2023-08-22T23:55:11.474Z,5.10
2023-08-22T23:57:38.317Z,4.82
